createdAt,value
2022-09-12T00:00:33.878Z,97.87
2022-09-12T00:01:33.939Z,97.77
2022-09-12T00:02:33.879Z,97.87
2022-09-12T00:03:33.848Z,97.92
2022-09-12T00:04:33.838Z,97.92
2022-09-12T00:05:33.834Z,97.92
2022-09-12T00:06:33.801Z,98.12
2022-09-12T00:07:33.833Z,98.12
2022-09-12T00:08:33.780Z,98.07
2022-09-12T00:09:33.831Z,98.02
2022-09-12T00:10:33.750Z,98.02
2022-09-12T00:11:33.741Z,98.02
2022-09-12T00:12:33.750Z,98.02
2022-09-12T00:13:35.546Z,97.92
2022-09-12T00:14:33.691Z,97.92
2022-09-12T00:15:33.693Z,97.77
2022-09-12T00:16:33.819Z,97.92
2022-09-12T00:17:33.708Z,97.81
2022-09-12T00:18:33.640Z,97.81
2022-09-12T00:19:33.631Z,97.71
2022-09-12T00:20:33.612Z,97.81
2022-09-12T00:21:33.603Z,97.61
2022-09-12T00:22:33.582Z,97.61
2022-09-12T00:23:33.603Z,97.71
2022-09-12T00:24:33.563Z,97.81
2022-09-12T00:25:33.571Z,97.81
2022-09-12T00:26:33.533Z,97.81
2022-09-12T00:27:33.521Z,97.92
2022-09-12T00:28:33.541Z,97.92
2022-09-12T00:29:33.496Z,97.92
2022-09-12T00:30:33.474Z,97.92
2022-09-12T00:31:33.500Z,98.02
2022-09-12T00:32:33.443Z,97.92
2022-09-12T00:33:33.474Z,97.81
2022-09-12T00:34:33.426Z,97.92
2022-09-12T00:35:33.416Z,98.02
2022-09-12T00:36:33.395Z,98.12
2022-09-12T00:37:33.457Z,98.12
2022-09-12T00:38:33.365Z,98.02
2022-09-12T00:39:33.355Z,98.02
2022-09-12T00:40:33.346Z,98.12
2022-09-12T00:41:33.341Z,98.22
2022-09-12T00:42:33.348Z,98.12
2022-09-12T00:43:33.306Z,98.16
2022-09-12T00:44:33.297Z,98.12
2022-09-12T00:45:33.297Z,98.16
2022-09-12T00:46:33.266Z,97.96
2022-09-12T00:47:33.296Z,98.16
2022-09-12T00:48:33.266Z,98.16
2022-09-12T00:49:33.227Z,98.16
2022-09-12T00:50:33.215Z,98.27
2022-09-12T00:51:33.199Z,98.27
2022-09-12T00:52:33.216Z,98.27
2022-09-12T00:53:33.166Z,98.16
2022-09-12T00:54:33.149Z,98.27
2022-09-12T00:55:33.138Z,98.37
2022-09-12T00:56:33.126Z,98.37
2022-09-12T00:57:33.139Z,98.37
2022-09-12T00:58:33.111Z,98.37
2022-09-12T00:59:33.080Z,98.37
2022-09-12T01:00:33.069Z,98.47
2022-09-12T01:01:33.166Z,98.37
2022-09-12T01:02:33.079Z,98.37
2022-09-12T01:03:33.029Z,98.37
2022-09-12T01:04:33.029Z,98.47
2022-09-12T01:05:33.002Z,98.47
2022-09-12T01:06:32.997Z,98.47
2022-09-12T01:07:35.818Z,98.47
2022-09-12T01:08:33.970Z,98.47
2022-09-12T01:09:32.954Z,98.47
2022-09-12T01:10:32.941Z,98.47
2022-09-12T01:11:32.922Z,98.47
2022-09-12T01:12:32.938Z,98.57
2022-09-12T01:13:32.893Z,98.57
2022-09-12T01:14:32.881Z,98.68
2022-09-12T01:15:32.882Z,98.77
2022-09-12T01:16:32.885Z,98.88
2022-09-12T01:17:32.927Z,98.88
2022-09-12T01:18:32.833Z,98.88
2022-09-12T01:19:32.803Z,98.88
2022-09-12T01:20:32.804Z,98.97
2022-09-12T01:21:32.782Z,98.97
2022-09-12T01:22:32.792Z,98.97
2022-09-12T01:23:32.764Z,98.97
2022-09-12T01:24:32.753Z,98.97
2022-09-12T01:25:32.725Z,98.97
2022-09-12T01:26:32.715Z,99.08
2022-09-12T01:27:32.732Z,99.08
2022-09-12T01:28:32.703Z,99.08
2022-09-12T01:29:32.675Z,99.08
2022-09-12T01:30:32.687Z,98.97
2022-09-12T01:31:32.655Z,98.97
2022-09-12T01:32:32.692Z,99.08
2022-09-12T01:33:32.613Z,99.08
2022-09-12T01:34:32.604Z,99.08
2022-09-12T01:35:32.599Z,99.08
2022-09-12T01:36:32.594Z,99.18
2022-09-12T01:37:32.587Z,99.08
2022-09-12T01:38:32.574Z,99.08
2022-09-12T01:39:32.545Z,99.08
2022-09-12T01:40:32.533Z,98.97
2022-09-12T01:41:32.516Z,99.08
2022-09-12T01:42:32.539Z,98.97
2022-09-12T01:43:32.485Z,99.08
2022-09-12T01:44:32.478Z,99.08
2022-09-12T01:45:32.500Z,98.97
2022-09-12T01:46:32.474Z,98.97
2022-09-12T01:47:32.475Z,98.97
2022-09-12T01:48:32.417Z,98.88
2022-09-12T01:49:32.397Z,98.88
2022-09-12T01:50:32.396Z,98.97
2022-09-12T01:51:32.376Z,98.88
2022-09-12T01:52:32.387Z,98.88
2022-09-12T01:53:32.347Z,98.88
2022-09-12T01:54:32.428Z,98.77
2022-09-12T01:55:32.319Z,98.77
2022-09-12T01:56:32.312Z,98.88
2022-09-12T01:57:32.317Z,98.68
2022-09-12T01:58:32.356Z,98.68
2022-09-12T01:59:32.280Z,98.68
2022-09-12T02:00:32.259Z,98.57
2022-09-12T02:01:32.292Z,98.57
2022-09-12T02:02:32.270Z,98.47
2022-09-12T02:03:32.210Z,98.27
2022-09-12T02:04:34.315Z,98.27
2022-09-12T02:05:32.184Z,98.27
2022-09-12T02:06:32.192Z,98.16
2022-09-12T02:07:32.212Z,98.16
2022-09-12T02:08:32.171Z,98.16
2022-09-12T02:09:32.140Z,98.16
2022-09-12T02:10:32.802Z,98.07
2022-09-12T02:11:32.147Z,98.16
2022-09-12T02:12:32.103Z,98.16
2022-09-12T02:13:32.098Z,98.27
2022-09-12T02:14:32.081Z,98.27
2022-09-12T02:15:32.101Z,98.27
2022-09-12T02:16:32.126Z,98.27
2022-09-12T02:17:32.026Z,98.16
2022-09-12T02:18:32.051Z,98.27
2022-09-12T02:19:31.992Z,98.27
2022-09-12T02:20:47.325Z,98.27
2022-09-12T02:21:32.979Z,98.27
2022-09-12T02:22:31.974Z,98.27
2022-09-12T02:23:31.964Z,98.27
2022-09-12T02:24:31.943Z,98.27
2022-09-12T02:25:31.914Z,98.37
2022-09-12T02:26:31.917Z,98.27
2022-09-12T02:27:31.884Z,98.37
2022-09-12T02:28:31.905Z,98.37
2022-09-12T02:29:31.867Z,98.47
2022-09-12T02:30:31.871Z,98.57
2022-09-12T02:31:31.832Z,98.57
2022-09-12T02:32:31.826Z,98.68
2022-09-12T02:33:31.844Z,98.68
2022-09-12T02:34:31.794Z,98.57
2022-09-12T02:35:31.824Z,98.57
2022-09-12T02:36:31.765Z,98.47
2022-09-12T02:37:31.764Z,98.37
2022-09-12T02:38:31.774Z,98.37
2022-09-12T02:39:31.724Z,98.37
2022-09-12T02:40:31.713Z,98.16
2022-09-12T02:41:31.695Z,98.16
2022-09-12T02:42:31.688Z,98.07
2022-09-12T02:43:31.694Z,97.96
2022-09-12T02:44:31.674Z,97.86
2022-09-12T02:45:31.706Z,97.76
2022-09-12T02:46:31.626Z,97.76
2022-09-12T02:47:31.618Z,97.76
2022-09-12T02:48:31.664Z,97.76
2022-09-12T02:49:31.587Z,97.86
2022-09-12T02:50:31.638Z,97.76
2022-09-12T02:51:31.558Z,97.76
2022-09-12T02:52:31.549Z,97.76
2022-09-12T02:53:31.578Z,97.76
2022-09-12T02:54:31.679Z,97.76
2022-09-12T02:55:31.506Z,97.66
2022-09-12T02:56:31.499Z,97.66
2022-09-12T02:57:31.488Z,97.66
2022-09-12T02:58:31.494Z,97.66
2022-09-12T02:59:31.449Z,97.66
2022-09-12T03:00:31.478Z,97.66
2022-09-12T03:01:31.493Z,97.66
2022-09-12T03:02:31.417Z,97.66
2022-09-12T03:03:31.419Z,97.56
2022-09-12T03:04:31.389Z,97.66
2022-09-12T03:05:31.370Z,97.66
2022-09-12T03:06:31.380Z,97.66
2022-09-12T03:07:31.347Z,97.66
2022-09-12T03:08:31.359Z,97.45
2022-09-12T03:09:31.311Z,97.56
2022-09-12T03:10:31.308Z,97.56
2022-09-12T03:11:31.291Z,97.45
2022-09-12T03:12:31.313Z,97.56
2022-09-12T03:13:31.261Z,97.56
2022-09-12T03:14:31.260Z,97.66
2022-09-12T03:15:31.231Z,97.66
2022-09-12T03:16:31.267Z,97.76
2022-09-12T03:17:31.239Z,97.66
2022-09-12T03:18:31.199Z,97.80
2022-09-12T03:19:31.182Z,97.76
2022-09-12T03:20:31.170Z,97.66
2022-09-12T03:21:31.152Z,97.71
2022-09-12T03:22:31.172Z,97.66
2022-09-12T03:23:31.123Z,97.71
2022-09-12T03:24:31.113Z,97.80
2022-09-12T03:25:31.093Z,97.76
2022-09-12T03:26:31.092Z,97.66
2022-09-12T03:27:31.151Z,97.56
2022-09-12T03:28:31.063Z,97.45
2022-09-12T03:29:31.044Z,97.56
2022-09-12T03:30:31.071Z,97.50
2022-09-12T03:31:31.016Z,97.56
2022-09-12T03:32:31.034Z,97.50
2022-09-12T03:33:30.984Z,97.60
2022-09-12T03:34:30.984Z,97.50
2022-09-12T03:35:30.966Z,97.50
2022-09-12T03:36:30.957Z,97.50
2022-09-12T03:37:30.955Z,97.50
2022-09-12T03:38:30.926Z,97.50
2022-09-12T03:39:30.912Z,97.60
2022-09-12T03:40:30.896Z,97.71
2022-09-12T03:41:30.885Z,97.71
2022-09-12T03:42:30.898Z,97.71
2022-09-12T03:43:30.856Z,97.80
2022-09-12T03:44:30.844Z,97.71
2022-09-12T03:45:30.847Z,97.71
2022-09-12T03:46:30.817Z,97.60
2022-09-12T03:47:30.828Z,97.60
2022-09-12T03:48:30.807Z,97.60
2022-09-12T03:49:30.778Z,97.60
2022-09-12T03:50:30.766Z,97.50
2022-09-12T03:51:30.747Z,97.45
2022-09-12T03:52:30.769Z,97.50
2022-09-12T03:53:30.722Z,97.50
2022-09-12T03:54:30.710Z,97.45
2022-09-12T03:55:30.689Z,97.50
2022-09-12T03:56:30.696Z,97.60
2022-09-12T03:57:30.669Z,97.50
2022-09-12T03:58:30.710Z,97.56
2022-09-12T03:59:30.637Z,97.35
2022-09-12T04:00:30.629Z,97.35
2022-09-12T04:01:30.671Z,97.35
2022-09-12T04:02:30.637Z,97.25
2022-09-12T04:03:30.609Z,97.25
2022-09-12T04:04:30.577Z,97.15
2022-09-12T04:05:30.557Z,97.15
2022-09-12T04:06:30.563Z,97.05
2022-09-12T04:07:30.530Z,97.05
2022-09-12T04:08:30.541Z,97.05
2022-09-12T04:09:30.511Z,97.05
2022-09-12T04:10:30.491Z,96.95
2022-09-12T04:11:30.470Z,96.84
2022-09-12T04:12:30.464Z,96.75
2022-09-12T04:13:30.485Z,96.64
2022-09-12T04:14:30.438Z,96.75
2022-09-12T04:15:30.420Z,96.75
2022-09-12T04:16:30.455Z,96.89
2022-09-12T04:17:30.401Z,96.95
2022-09-12T04:18:30.410Z,96.95
2022-09-12T04:19:30.362Z,96.95
2022-09-12T04:20:30.370Z,96.95
2022-09-12T04:21:30.355Z,96.95
2022-09-12T04:22:30.343Z,96.84
2022-09-12T04:23:30.337Z,96.95
2022-09-12T04:24:30.304Z,96.95
2022-09-12T04:25:30.283Z,96.95
2022-09-12T04:26:30.273Z,97.05
2022-09-12T04:27:30.262Z,97.15
2022-09-12T04:28:30.273Z,97.15
2022-09-12T04:29:30.232Z,97.15
2022-09-12T04:30:30.252Z,97.15
2022-09-12T04:31:30.204Z,97.05
2022-09-12T04:32:30.195Z,97.05
2022-09-12T04:33:30.205Z,97.05
2022-09-12T04:34:30.173Z,96.95
2022-09-12T04:35:30.145Z,96.95
2022-09-12T04:36:30.135Z,96.75
2022-09-12T04:37:30.115Z,96.75
2022-09-12T04:38:30.136Z,96.64
2022-09-12T04:39:30.116Z,96.54
2022-09-12T04:40:30.085Z,96.54
2022-09-12T04:41:30.067Z,96.44
2022-09-12T04:42:30.057Z,96.44
2022-09-12T04:43:30.068Z,96.44
2022-09-12T04:44:30.026Z,96.34
2022-09-12T04:45:30.080Z,96.34
2022-09-12T04:46:30.005Z,96.23
2022-09-12T04:47:29.999Z,96.14
2022-09-12T04:48:30.008Z,96.14
2022-09-12T04:49:29.958Z,96.03
2022-09-12T04:50:29.949Z,96.03
2022-09-12T04:51:29.948Z,95.94
2022-09-12T04:52:29.924Z,95.94
2022-09-12T04:53:29.926Z,95.83
2022-09-12T04:54:29.904Z,95.83
2022-09-12T04:55:29.879Z,95.68
2022-09-12T04:56:29.858Z,95.63
2022-09-12T04:57:29.859Z,95.53
2022-09-12T04:58:29.858Z,95.63
2022-09-12T04:59:29.839Z,95.63
2022-09-12T05:00:29.843Z,95.63
2022-09-12T05:01:29.839Z,95.63
2022-09-12T05:02:29.826Z,95.63
2022-09-12T05:03:29.807Z,95.63
2022-09-12T05:04:29.749Z,95.68
2022-09-12T05:05:29.742Z,95.58
2022-09-12T05:06:29.740Z,95.48
2022-09-12T05:07:29.728Z,95.48
2022-09-12T05:08:29.727Z,95.53
2022-09-12T05:09:29.692Z,95.38
2022-09-12T05:10:29.671Z,95.28
2022-09-12T05:11:46.869Z,95.28
2022-09-12T05:12:30.641Z,95.38
2022-09-12T05:13:29.725Z,95.28
2022-09-12T05:14:29.619Z,95.18
2022-09-12T05:15:29.620Z,95.07
2022-09-12T05:16:29.634Z,94.98
2022-09-12T05:17:29.617Z,94.87
2022-09-12T05:18:29.562Z,94.87
2022-09-12T05:19:29.552Z,94.77
2022-09-12T05:20:29.553Z,94.87
2022-09-12T05:21:29.523Z,94.77
2022-09-12T05:22:29.543Z,94.67
2022-09-12T05:23:29.493Z,94.57
2022-09-12T05:24:29.524Z,94.57
2022-09-12T05:25:29.474Z,94.67
2022-09-12T05:26:29.454Z,94.46
2022-09-12T05:27:29.445Z,94.26
2022-09-12T05:28:29.457Z,94.37
2022-09-12T05:29:29.434Z,94.37
2022-09-12T05:30:29.464Z,94.37
2022-09-12T05:31:29.384Z,94.26
2022-09-12T05:32:29.386Z,94.17
2022-09-12T05:33:29.393Z,94.06
2022-09-12T05:34:29.343Z,94.12
2022-09-12T05:35:29.341Z,94.02
2022-09-12T05:36:29.344Z,94.02
2022-09-12T05:37:29.305Z,94.02
2022-09-12T05:38:29.316Z,93.91
2022-09-12T05:39:29.287Z,93.81
2022-09-12T05:40:29.256Z,93.71
2022-09-12T05:41:29.254Z,93.61
2022-09-12T05:42:29.228Z,93.61
2022-09-12T05:43:29.289Z,93.81
2022-09-12T05:44:29.225Z,93.61
2022-09-12T05:45:29.197Z,93.57
2022-09-12T05:46:29.187Z,93.71
2022-09-12T05:47:29.182Z,93.67
2022-09-12T05:48:29.178Z,93.57
2022-09-12T05:49:29.148Z,93.46
2022-09-12T05:50:29.128Z,93.26
2022-09-12T05:51:29.119Z,93.26
2022-09-12T05:52:29.096Z,93.16
2022-09-12T05:53:29.111Z,92.96
2022-09-12T05:54:31.685Z,93.06
2022-09-12T05:55:29.069Z,92.96
2022-09-12T05:56:29.039Z,92.65
2022-09-12T05:57:29.089Z,92.71
2022-09-12T05:58:29.039Z,92.51
2022-09-12T05:59:29.009Z,92.41
2022-09-12T06:00:33.321Z,92.41
2022-09-12T06:01:29.024Z,92.41
2022-09-12T06:02:28.973Z,92.21
2022-09-12T06:03:28.977Z,92.00
2022-09-12T06:04:28.941Z,91.80
2022-09-12T06:05:28.931Z,91.90
2022-09-12T06:06:28.920Z,91.60
2022-09-12T06:07:28.900Z,91.39
2022-09-12T06:08:28.924Z,91.30
2022-09-12T06:09:28.872Z,91.19
2022-09-12T06:10:28.851Z,90.95
2022-09-12T06:11:28.864Z,90.95
2022-09-12T06:12:28.822Z,90.75
2022-09-12T06:13:28.842Z,90.64
2022-09-12T06:14:28.812Z,90.64
2022-09-12T06:15:28.789Z,90.75
2022-09-12T06:16:28.876Z,90.34
2022-09-12T06:17:28.762Z,90.24
2022-09-12T06:18:28.763Z,90.24
2022-09-12T06:19:28.743Z,90.24
2022-09-12T06:20:28.714Z,90.24
2022-09-12T06:21:28.725Z,89.89
2022-09-12T06:22:28.693Z,89.79
2022-09-12T06:23:28.714Z,89.89
2022-09-12T06:24:28.664Z,89.79
2022-09-12T06:25:28.670Z,89.69
2022-09-12T06:26:28.637Z,89.79
2022-09-12T06:27:28.646Z,89.69
2022-09-12T06:28:28.662Z,89.99
2022-09-12T06:29:28.612Z,90.05
2022-09-12T06:30:28.674Z,89.95
2022-09-12T06:31:28.573Z,89.54
2022-09-12T06:32:28.556Z,89.34
2022-09-12T06:33:28.575Z,89.14
2022-09-12T06:34:28.526Z,88.94
2022-09-12T06:35:28.516Z,88.84
2022-09-12T06:36:28.503Z,88.84
2022-09-12T06:37:28.497Z,88.53
2022-09-12T06:38:28.517Z,88.33
2022-09-12T06:39:28.474Z,88.64
2022-09-12T06:40:28.446Z,88.23
2022-09-12T06:41:28.447Z,88.19
2022-09-12T06:42:28.427Z,88.19
2022-09-12T06:43:28.435Z,88.19
2022-09-12T06:44:28.389Z,88.19
2022-09-12T06:45:28.378Z,88.19
2022-09-12T06:46:28.374Z,88.19
2022-09-12T06:47:28.356Z,88.25
2022-09-12T06:48:28.359Z,87.84
2022-09-12T06:49:28.358Z,87.64
2022-09-12T06:50:28.320Z,87.44
2022-09-12T06:51:28.300Z,87.74
2022-09-12T06:52:28.280Z,87.95
2022-09-12T06:53:28.309Z,87.74
2022-09-12T06:54:28.260Z,87.64
2022-09-12T06:55:28.250Z,87.13
2022-09-12T06:56:28.259Z,87.30
2022-09-12T06:57:28.237Z,87.30
2022-09-12T06:58:28.221Z,86.99
2022-09-12T06:59:28.201Z,86.49
2022-09-12T07:00:28.171Z,86.59
2022-09-12T07:01:28.204Z,86.39
2022-09-12T07:02:28.176Z,86.49
2022-09-12T07:03:28.162Z,86.39
2022-09-12T07:04:28.125Z,86.39
2022-09-12T07:05:28.120Z,86.19
2022-09-12T07:06:28.092Z,86.49
2022-09-12T07:07:28.102Z,86.55
2022-09-12T07:08:28.064Z,86.65
2022-09-12T07:09:28.054Z,86.15
2022-09-12T07:10:28.034Z,86.15
2022-09-12T07:11:28.030Z,85.74
2022-09-12T07:12:28.034Z,86.15
2022-09-12T07:13:28.001Z,86.04
2022-09-12T07:14:27.981Z,85.84
2022-09-12T07:15:27.974Z,85.34
2022-09-12T07:16:27.990Z,84.77
2022-09-12T07:17:27.995Z,85.17
2022-09-12T07:18:27.955Z,85.28
2022-09-12T07:19:27.921Z,85.28
2022-09-12T07:20:27.905Z,85.48
2022-09-12T07:21:27.885Z,85.38
2022-09-12T07:22:27.895Z,85.78
2022-09-12T07:23:27.864Z,85.94
2022-09-12T07:24:27.855Z,85.74
2022-09-12T07:25:27.836Z,85.17
2022-09-12T07:26:27.819Z,85.48
2022-09-12T07:27:27.836Z,85.64
2022-09-12T07:28:27.795Z,85.94
2022-09-12T07:29:43.131Z,86.15
2022-09-12T07:30:28.797Z,85.94
2022-09-12T07:31:27.760Z,85.84
2022-09-12T07:32:27.758Z,85.60
2022-09-12T07:33:27.746Z,85.30
2022-09-12T07:34:27.709Z,85.50
2022-09-12T07:35:27.706Z,85.30
2022-09-12T07:36:27.690Z,84.79
2022-09-12T07:37:27.700Z,84.49
2022-09-12T07:38:27.660Z,85.10
2022-09-12T07:39:27.647Z,85.10
2022-09-12T07:40:27.638Z,85.16
2022-09-12T07:41:27.647Z,84.85
2022-09-12T07:42:27.629Z,84.55
2022-09-12T07:43:27.598Z,84.15
2022-09-12T07:44:27.581Z,84.15
2022-09-12T07:45:27.570Z,84.45
2022-09-12T07:46:27.551Z,84.35
2022-09-12T07:47:27.568Z,84.85
2022-09-12T07:48:28.502Z,84.51
2022-09-12T07:49:27.529Z,83.91
2022-09-12T07:50:27.492Z,83.60
2022-09-12T07:51:27.512Z,83.50
2022-09-12T07:52:27.464Z,84.01
2022-09-12T07:53:27.461Z,83.80
2022-09-12T07:54:27.443Z,83.20
2022-09-12T07:55:27.431Z,82.90
2022-09-12T07:56:30.561Z,83.20
2022-09-12T07:57:27.416Z,83.40
2022-09-12T07:58:27.384Z,83.20
2022-09-12T07:59:50.787Z,83.50
2022-09-12T08:00:28.355Z,83.80
2022-09-12T08:01:27.392Z,84.11
2022-09-12T08:02:27.407Z,83.80
2022-09-12T08:03:27.322Z,83.40
2022-09-12T08:04:27.302Z,83.60
2022-09-12T08:05:27.303Z,83.40
2022-09-12T08:06:27.273Z,83.30
2022-09-12T08:07:27.285Z,84.21
2022-09-12T08:08:27.261Z,83.91
2022-09-12T08:09:27.237Z,83.80
2022-09-12T08:10:27.216Z,83.30
2022-09-12T08:11:27.217Z,83.20
2022-09-12T08:12:27.217Z,83.50
2022-09-12T08:13:27.196Z,83.50
2022-09-12T08:14:27.169Z,83.50
2022-09-12T08:15:27.227Z,83.20
2022-09-12T08:16:27.139Z,83.40
2022-09-12T08:17:27.191Z,83.46
2022-09-12T08:18:27.108Z,82.86
2022-09-12T08:19:27.108Z,82.86
2022-09-12T08:20:28.509Z,82.35
2022-09-12T08:21:27.087Z,82.56
2022-09-12T08:22:27.098Z,82.35
2022-09-12T08:23:27.050Z,82.35
2022-09-12T08:24:27.038Z,82.35
2022-09-12T08:25:27.019Z,82.11
2022-09-12T08:26:26.999Z,81.81
2022-09-12T08:27:27.044Z,81.91
2022-09-12T08:28:26.976Z,81.81
2022-09-12T08:29:26.982Z,81.91
2022-09-12T08:30:26.951Z,82.07
2022-09-12T08:31:26.958Z,81.77
2022-09-12T08:32:26.951Z,81.67
2022-09-12T08:33:26.913Z,81.23
2022-09-12T08:34:26.890Z,80.93
2022-09-12T08:35:26.884Z,80.32
2022-09-12T08:36:26.874Z,80.52
2022-09-12T08:37:26.892Z,80.02
2022-09-12T08:38:26.844Z,79.82
2022-09-12T08:39:26.833Z,79.58
2022-09-12T08:40:26.813Z,79.88
2022-09-12T08:41:26.803Z,79.99
2022-09-12T08:42:26.814Z,79.99
2022-09-12T08:43:26.776Z,79.68
2022-09-12T08:44:26.783Z,79.74
2022-09-12T08:45:26.755Z,79.35
2022-09-12T08:46:26.817Z,78.50
2022-09-12T08:47:26.723Z,78.60
2022-09-12T08:48:26.718Z,78.77
2022-09-12T08:49:26.703Z,78.36
2022-09-12T08:50:26.677Z,77.36
2022-09-12T08:51:26.705Z,77.72
2022-09-12T08:52:26.655Z,77.72
2022-09-12T08:53:26.636Z,76.72
2022-09-12T08:54:26.635Z,76.12
2022-09-12T08:55:26.616Z,76.78
2022-09-12T08:56:31.423Z,77.09
2022-09-12T08:57:27.616Z,76.42
2022-09-12T08:58:26.574Z,75.71
2022-09-12T08:59:26.576Z,75.92
2022-09-12T09:00:26.548Z,76.72
2022-09-12T09:01:26.604Z,77.28
2022-09-12T09:02:26.638Z,76.78
2022-09-12T09:03:26.508Z,76.28
2022-09-12T09:04:28.792Z,76.58
2022-09-12T09:05:26.481Z,76.58
2022-09-12T09:06:26.478Z,75.88
2022-09-12T09:07:26.449Z,76.02
2022-09-12T09:08:26.440Z,76.12
2022-09-12T09:09:26.421Z,76.72
2022-09-12T09:10:26.410Z,77.22
2022-09-12T09:11:26.416Z,76.42
2022-09-12T09:12:26.382Z,76.32
2022-09-12T09:13:26.360Z,76.42
2022-09-12T09:14:26.351Z,76.42
2022-09-12T09:15:26.415Z,76.52
2022-09-12T09:16:26.351Z,76.12
2022-09-12T09:17:26.311Z,76.62
2022-09-12T09:18:26.299Z,76.62
2022-09-12T09:19:26.283Z,76.92
2022-09-12T09:20:26.302Z,76.92
2022-09-12T09:21:26.279Z,76.82
2022-09-12T09:22:26.264Z,77.32
2022-09-12T09:23:26.246Z,77.32
2022-09-12T09:24:26.214Z,77.22
2022-09-12T09:25:26.204Z,77.02
2022-09-12T09:26:26.234Z,77.32
2022-09-12T09:27:39.998Z,77.02
2022-09-12T09:28:27.180Z,77.12
2022-09-12T09:29:26.146Z,77.32
2022-09-12T09:30:26.135Z,77.99
2022-09-12T09:31:26.212Z,77.99
2022-09-12T09:32:26.114Z,77.59
2022-09-12T09:33:26.097Z,76.78
2022-09-12T09:34:26.087Z,76.65
2022-09-12T09:35:26.074Z,76.34
2022-09-12T09:36:26.084Z,76.75
2022-09-12T09:37:26.046Z,76.45
2022-09-12T09:38:26.035Z,75.64
2022-09-12T09:39:26.007Z,75.71
2022-09-12T09:40:26.015Z,75.41
2022-09-12T09:41:26.018Z,75.31
2022-09-12T09:42:26.001Z,74.90
2022-09-12T09:43:25.958Z,74.97
2022-09-12T09:44:25.949Z,74.77
2022-09-12T09:45:25.931Z,74.77
2022-09-12T09:46:26.062Z,74.17
2022-09-12T09:47:25.900Z,74.27
2022-09-12T09:48:25.897Z,74.03
2022-09-12T09:49:25.878Z,74.43
2022-09-12T09:50:25.880Z,74.13
2022-09-12T09:51:25.879Z,72.93
2022-09-12T09:52:25.841Z,72.83
2022-09-12T09:53:25.820Z,73.30
2022-09-12T09:54:25.824Z,72.69
2022-09-12T09:55:25.793Z,73.39
2022-09-12T09:56:25.812Z,74.10
2022-09-12T09:57:25.773Z,74.80
2022-09-12T09:58:25.766Z,73.39
2022-09-12T09:59:25.750Z,71.59
2022-09-12T10:00:25.735Z,72.00
2022-09-12T10:01:25.780Z,71.69
2022-09-12T10:02:25.741Z,72.30
2022-09-12T10:03:25.684Z,72.26
2022-09-12T10:04:25.674Z,72.36
2022-09-12T10:05:25.677Z,71.16
2022-09-12T10:06:25.675Z,71.36
2022-09-12T10:07:25.646Z,71.56
2022-09-12T10:08:25.625Z,70.46
2022-09-12T10:09:25.605Z,71.33
2022-09-12T10:10:25.616Z,71.12
2022-09-12T10:11:25.605Z,71.73
2022-09-12T10:12:25.583Z,71.53
2022-09-12T10:13:25.564Z,70.62
2022-09-12T10:14:25.548Z,70.73
2022-09-12T10:15:25.536Z,70.92
2022-09-12T10:16:25.537Z,70.03
2022-09-12T10:17:25.508Z,70.32
2022-09-12T10:18:25.490Z,69.89
2022-09-12T10:19:25.469Z,69.59
2022-09-12T10:20:25.474Z,69.79
2022-09-12T10:21:25.468Z,70.49
2022-09-12T10:22:25.439Z,70.89
2022-09-12T10:23:25.423Z,69.79
2022-09-12T10:24:25.410Z,68.49
2022-09-12T10:25:25.391Z,69.26
2022-09-12T10:26:25.418Z,68.29
2022-09-12T10:27:25.389Z,69.06
2022-09-12T10:28:25.350Z,68.66
2022-09-12T10:29:25.341Z,69.06
2022-09-12T10:30:25.373Z,69.36
2022-09-12T10:31:25.332Z,69.16
2022-09-12T10:32:29.960Z,68.36
2022-09-12T10:33:26.284Z,68.76
2022-09-12T10:34:25.286Z,68.63
2022-09-12T10:35:25.260Z,67.63
2022-09-12T10:36:25.270Z,67.33
2022-09-12T10:37:25.224Z,67.19
2022-09-12T10:38:25.221Z,66.77
2022-09-12T10:39:25.198Z,66.13
2022-09-12T10:40:25.257Z,64.18
2022-09-12T10:41:25.203Z,62.62
2022-09-12T10:42:25.165Z,61.37
2022-09-12T10:43:25.145Z,60.98
2022-09-12T10:44:25.136Z,59.14
2022-09-12T10:45:25.124Z,56.68
2022-09-12T10:46:25.222Z,55.63
2022-09-12T10:47:25.100Z,53.30
2022-09-12T10:48:25.084Z,52.51
2022-09-12T10:49:25.068Z,52.69
2022-09-12T10:50:25.058Z,53.62
2022-09-12T10:51:25.068Z,51.99
2022-09-12T10:52:25.031Z,50.51
2022-09-12T10:53:25.016Z,50.29
2022-09-12T10:54:25.027Z,48.88
2022-09-12T10:55:24.990Z,49.99
2022-09-12T10:56:25.001Z,49.67
2022-09-12T10:57:24.959Z,47.78
2022-09-12T10:58:24.954Z,47.66
2022-09-12T10:59:24.931Z,47.75
2022-09-12T11:00:24.921Z,47.92
2022-09-12T11:01:24.961Z,46.65
2022-09-12T11:02:24.955Z,46.84
2022-09-12T11:03:24.884Z,46.92
2022-09-12T11:04:24.893Z,45.92
2022-09-12T11:05:24.853Z,45.62
2022-09-12T11:06:24.882Z,44.91
2022-09-12T11:07:24.827Z,44.12
2022-09-12T11:08:24.843Z,44.15
2022-09-12T11:09:24.804Z,44.52
2022-09-12T11:10:24.796Z,43.85
2022-09-12T11:11:24.803Z,43.43
2022-09-12T11:12:24.765Z,43.04
2022-09-12T11:13:24.751Z,44.17
2022-09-12T11:14:24.745Z,43.48
2022-09-12T11:15:24.727Z,44.15
2022-09-12T11:16:24.737Z,44.81
2022-09-12T11:17:24.698Z,43.95
2022-09-12T11:18:24.688Z,43.16
2022-09-12T11:19:24.676Z,42.28
2022-09-12T11:20:24.679Z,43.06
2022-09-12T11:21:24.670Z,42.38
2022-09-12T11:22:26.770Z,42.94
2022-09-12T11:23:25.621Z,41.69
2022-09-12T11:24:24.611Z,41.80
2022-09-12T11:25:24.593Z,41.71
2022-09-12T11:26:24.612Z,41.59
2022-09-12T11:27:24.574Z,41.67
2022-09-12T11:28:24.565Z,40.78
2022-09-12T11:29:24.567Z,41.45
2022-09-12T11:30:24.532Z,40.35
2022-09-12T11:31:24.555Z,40.08
2022-09-12T11:32:24.512Z,41.25
2022-09-12T11:33:24.494Z,41.08
2022-09-12T11:34:24.487Z,40.84
2022-09-12T11:35:24.474Z,40.43
2022-09-12T11:36:24.496Z,39.74
2022-09-12T11:37:24.454Z,38.85
2022-09-12T11:38:24.444Z,38.09
2022-09-12T11:39:24.418Z,40.16
2022-09-12T11:40:24.554Z,39.45
2022-09-12T11:41:24.418Z,38.96
2022-09-12T11:42:24.390Z,38.96
2022-09-12T11:43:24.379Z,39.06
2022-09-12T11:44:24.360Z,38.07
2022-09-12T11:45:24.360Z,39.45
2022-09-12T11:46:24.392Z,39.07
2022-09-12T11:47:24.320Z,39.27
2022-09-12T11:48:24.311Z,40.13
2022-09-12T11:49:24.300Z,39.82
2022-09-12T11:50:24.285Z,39.03
2022-09-12T11:51:24.310Z,39.61
2022-09-12T11:52:24.272Z,40.41
2022-09-12T11:53:24.243Z,39.82
2022-09-12T11:54:24.243Z,39.82
2022-09-12T11:55:24.221Z,40.39
2022-09-12T11:56:24.242Z,38.92
2022-09-12T11:57:24.195Z,38.90
2022-09-12T11:58:24.194Z,38.53
2022-09-12T11:59:24.177Z,38.54
2022-09-12T12:00:24.166Z,39.53
2022-09-12T12:01:24.178Z,38.93
2022-09-12T12:02:24.207Z,38.72
2022-09-12T12:03:24.175Z,38.23
2022-09-12T12:04:24.120Z,38.62
2022-09-12T12:05:24.110Z,38.53
2022-09-12T12:06:24.118Z,38.72
2022-09-12T12:07:24.081Z,40.92
2022-09-12T12:08:24.071Z,40.70
2022-09-12T12:09:24.050Z,41.29
2022-09-12T12:10:24.040Z,39.84
2022-09-12T12:11:24.071Z,40.82
2022-09-12T12:12:24.022Z,40.43
2022-09-12T12:13:24.005Z,40.31
2022-09-12T12:14:24.002Z,40.43
2022-09-12T12:15:23.993Z,42.10
2022-09-12T12:16:24.065Z,40.84
2022-09-12T12:17:23.964Z,42.32
2022-09-12T12:18:23.964Z,41.33
2022-09-12T12:19:23.935Z,41.74
2022-09-12T12:20:23.939Z,41.45
2022-09-12T12:21:23.935Z,42.14
2022-09-12T12:22:23.909Z,42.28
2022-09-12T12:23:23.888Z,42.10
2022-09-12T12:24:23.909Z,41.59
2022-09-12T12:25:27.571Z,42.35
2022-09-12T12:26:24.879Z,40.88
2022-09-12T12:27:23.837Z,41.17
2022-09-12T12:28:23.829Z,40.98
2022-09-12T12:29:23.809Z,40.70
2022-09-12T12:30:23.808Z,40.41
2022-09-12T12:31:23.914Z,40.61
2022-09-12T12:32:23.801Z,41.47
2022-09-12T12:33:23.769Z,41.86
2022-09-12T12:34:23.754Z,41.86
2022-09-12T12:35:23.750Z,41.98
2022-09-12T12:36:23.764Z,42.30
2022-09-12T12:37:23.712Z,42.20
2022-09-12T12:38:23.713Z,41.63
2022-09-12T12:39:23.693Z,42.12
2022-09-12T12:40:23.744Z,41.75
2022-09-12T12:41:23.685Z,43.03
2022-09-12T12:42:23.655Z,42.14
2022-09-12T12:43:23.644Z,42.85
2022-09-12T12:44:23.636Z,43.93
2022-09-12T12:45:23.617Z,43.56
2022-09-12T12:46:23.653Z,43.66
2022-09-12T12:47:23.586Z,43.98
2022-09-12T12:48:23.587Z,44.47
2022-09-12T12:49:23.577Z,44.29
2022-09-12T12:50:23.557Z,44.00
2022-09-12T12:51:23.582Z,43.80
2022-09-12T12:52:23.550Z,43.73